sensor_id;sensor_type;location;lat;lon;timestamp;P1;durP1;ratioP1;P2;durP2;ratioP2
72369;SDS011;60343;-32.030;115.880;2022-08-21T00:01:53;8.30;;;3.90;;
72369;SDS011;60343;-32.030;115.880;2022-08-21T00:04:20;9.13;;;3.50;;
72369;SDS011;60343;-32.030;115.880;2022-08-21T00:06:48;6.43;;;3.28;;
72369;SDS011;60343;-32.030;115.880;2022-08-21T00:09:22;5.90;;;3.08;;
72369;SDS011;60343;-32.030;115.880;2022-08-21T00:11:50;7.00;;;2.92;;
72369;SDS011;60343;-32.030;115.880;2022-08-21T00:14:18;7.38;;;2.70;;
72369;SDS011;60343;-32.030;115.880;2022-08-21T00:16:45;8.93;;;2.78;;
72369;SDS011;60343;-32.030;115.880;2022-08-21T00:19:13;6.10;;;3.00;;
72369;SDS011;60343;-32.030;115.880;2022-08-21T00:21:41;5.53;;;2.50;;
72369;SDS011;60343;-32.030;115.880;2022-08-21T00:24:08;9.68;;;2.80;;
72369;SDS011;60343;-32.030;115.880;2022-08-21T00:26:42;6.40;;;2.72;;
72369;SDS011;60343;-32.030;115.880;2022-08-21T00:29:09;5.00;;;2.40;;
72369;SDS011;60343;-32.030;115.880;2022-08-21T00:31:37;5.72;;;2.65;;
72369;SDS011;60343;-32.030;115.880;2022-08-21T00:34:05;7.13;;;2.83;;
72369;SDS011;60343;-32.030;115.880;2022-08-21T00:36:32;6.88;;;2.78;;
72369;SDS011;60343;-32.030;115.880;2022-08-21T00:39:00;6.93;;;2.60;;
72369;SDS011;60343;-32.030;115.880;2022-08-21T00:41:29;5.80;;;2.20;;
72369;SDS011;60343;-32.030;115.880;2022-08-21T00:44:03;4.35;;;2.03;;
72369;SDS011;60343;-32.030;115.880;2022-08-21T00:46:31;5.25;;;2.20;;
72369;SDS011;60343;-32.030;115.880;2022-08-21T00:48:59;6.20;;;2.30;;
72369;SDS011;60343;-32.030;115.880;2022-08-21T00:51:28;6.22;;;2.38;;
72369;SDS011;60343;-32.030;115.880;2022-08-21T00:54:02;5.78;;;2.40;;
72369;SDS011;60343;-32.030;115.880;2022-08-21T00:56:31;5.65;;;2.30;;
72369;SDS011;60343;-32.030;115.880;2022-08-21T00:59:04;4.18;;;2.03;;
72369;SDS011;60343;-32.030;115.880;2022-08-21T01:01:33;4.10;;;1.80;;
72369;SDS011;60343;-32.030;115.880;2022-08-21T01:04:01;4.55;;;2.03;;
72369;SDS011;60343;-32.030;115.880;2022-08-21T01:06:29;6.93;;;2.35;;
72369;SDS011;60343;-32.030;115.880;2022-08-21T01:08:57;3.83;;;1.73;;
72369;SDS011;60343;-32.030;115.880;2022-08-21T01:11:25;5.22;;;1.90;;
72369;SDS011;60343;-32.030;115.880;2022-08-21T01:13:52;5.32;;;2.50;;
72369;SDS011;60343;-32.030;115.880;2022-08-21T01:16:26;5.05;;;2.47;;
72369;SDS011;60343;-32.030;115.880;2022-08-21T01:18:54;5.95;;;3.08;;
72369;SDS011;60343;-32.030;115.880;2022-08-21T01:21:27;5.75;;;3.30;;
72369;SDS011;60343;-32.030;115.880;2022-08-21T01:23:55;6.22;;;3.30;;
72369;SDS011;60343;-32.030;115.880;2022-08-21T01:26:25;8.93;;;3.08;;
72369;SDS011;60343;-32.030;115.880;2022-08-21T01:28:57;5.32;;;2.50;;
72369;SDS011;60343;-32.030;115.880;2022-08-21T01:31:27;5.63;;;2.58;;
72369;SDS011;60343;-32.030;115.880;2022-08-21T01:33:55;5.55;;;2.67;;
72369;SDS011;60343;-32.030;115.880;2022-08-21T01:36:29;4.90;;;2.28;;
72369;SDS011;60343;-32.030;115.880;2022-08-21T01:38:58;7.82;;;2.97;;
72369;SDS011;60343;-32.030;115.880;2022-08-21T01:41:25;6.57;;;2.47;;
72369;SDS011;60343;-32.030;115.880;2022-08-21T01:43:53;5.20;;;2.17;;
72369;SDS011;60343;-32.030;115.880;2022-08-21T01:46:21;4.50;;;2.08;;
72369;SDS011;60343;-32.030;115.880;2022-08-21T01:48:49;4.07;;;2.20;;
72369;SDS011;60343;-32.030;115.880;2022-08-21T01:51:16;4.85;;;2.17;;
72369;SDS011;60343;-32.030;115.880;2022-08-21T01:53:50;4.38;;;2.30;;
72369;SDS011;60343;-32.030;115.880;2022-08-21T01:56:17;4.55;;;2.47;;
72369;SDS011;60343;-32.030;115.880;2022-08-21T01:58:45;4.20;;;2.10;;
72369;SDS011;60343;-32.030;115.880;2022-08-21T02:01:14;4.85;;;2.33;;
72369;SDS011;60343;-32.030;115.880;2022-08-21T02:03:42;5.30;;;2.67;;
72369;SDS011;60343;-32.030;115.880;2022-08-21T02:06:12;6.05;;;2.50;;
72369;SDS011;60343;-32.030;115.880;2022-08-21T02:08:41;4.68;;;2.25;;
72369;SDS011;60343;-32.030;115.880;2022-08-21T02:11:14;5.75;;;2.47;;
72369;SDS011;60343;-32.030;115.880;2022-08-21T02:13:42;5.88;;;2.40;;
72369;SDS011;60343;-32.030;115.880;2022-08-21T02:16:10;5.60;;;2.45;;
72369;SDS011;60343;-32.030;115.880;2022-08-21T02:18:38;3.50;;;1.83;;
72369;SDS011;60343;-32.030;115.880;2022-08-21T02:21:06;4.18;;;2.00;;
72369;SDS011;60343;-32.030;115.880;2022-08-21T02:23:34;3.88;;;1.80;;
72369;SDS011;60343;-32.030;115.880;2022-08-21T02:26:03;4.05;;;2.20;;
72369;SDS011;60343;-32.030;115.880;2022-08-21T02:28:38;5.47;;;1.95;;
72369;SDS011;60343;-32.030;115.880;2022-08-21T02:31:05;3.85;;;1.48;;
72369;SDS011;60343;-32.030;115.880;2022-08-21T02:33:33;2.97;;;1.42;;
72369;SDS011;60343;-32.030;115.880;2022-08-21T02:36:01;3.80;;;1.40;;
72369;SDS011;60343;-32.030;115.880;2022-08-21T02:38:31;3.72;;;1.33;;
72369;SDS011;60343;-32.030;115.880;2022-08-21T02:40:59;2.75;;;1.20;;
72369;SDS011;60343;-32.030;115.880;2022-08-21T02:43:28;3.22;;;1.33;;
72369;SDS011;60343;-32.030;115.880;2022-08-21T02:46:01;2.80;;;1.02;;
72369;SDS011;60343;-32.030;115.880;2022-08-21T02:48:30;3.85;;;1.00;;
72369;SDS011;60343;-32.030;115.880;2022-08-21T02:51:00;2.30;;;1.00;;
72369;SDS011;60343;-32.030;115.880;2022-08-21T02:53:29;2.28;;;1.02;;
72369;SDS011;60343;-32.030;115.880;2022-08-21T02:55:57;2.20;;;1.00;;
72369;SDS011;60343;-32.030;115.880;2022-08-21T02:58:27;3.40;;;1.10;;
72369;SDS011;60343;-32.030;115.880;2022-08-21T03:01:02;3.25;;;1.20;;
72369;SDS011;60343;-32.030;115.880;2022-08-21T03:03:30;1.52;;;0.75;;
72369;SDS011;60343;-32.030;115.880;2022-08-21T03:05:58;2.47;;;0.90;;
72369;SDS011;60343;-32.030;115.880;2022-08-21T03:08:26;3.33;;;0.98;;
72369;SDS011;60343;-32.030;115.880;2022-08-21T03:10:54;3.25;;;1.25;;
72369;SDS011;60343;-32.030;115.880;2022-08-21T03:13:22;4.68;;;1.40;;
72369;SDS011;60343;-32.030;115.880;2022-08-21T03:15:49;4.60;;;1.30;;
72369;SDS011;60343;-32.030;115.880;2022-08-21T03:18:23;4.75;;;1.30;;
72369;SDS011;60343;-32.030;115.880;2022-08-21T03:20:50;3.35;;;0.93;;
72369;SDS011;60343;-32.030;115.880;2022-08-21T03:23:18;5.97;;;1.10;;
72369;SDS011;60343;-32.030;115.880;2022-08-21T03:25:46;3.45;;;1.02;;
72369;SDS011;60343;-32.030;115.880;2022-08-21T03:28:15;3.50;;;1.30;;
72369;SDS011;60343;-32.030;115.880;2022-08-21T03:30:47;2.80;;;1.10;;
72369;SDS011;60343;-32.030;115.880;2022-08-21T03:33:16;2.65;;;0.98;;
72369;SDS011;60343;-32.030;115.880;2022-08-21T03:35:52;2.05;;;0.80;;
72369;SDS011;60343;-32.030;115.880;2022-08-21T03:38:24;2.70;;;0.80;;
72369;SDS011;60343;-32.030;115.880;2022-08-21T03:40:52;3.00;;;0.98;;
72369;SDS011;60343;-32.030;115.880;2022-08-21T03:43:20;4.57;;;1.02;;
72369;SDS011;60343;-32.030;115.880;2022-08-21T03:45:48;1.55;;;0.70;;
72369;SDS011;60343;-32.030;115.880;2022-08-21T03:48:16;5.25;;;0.93;;
72369;SDS011;60343;-32.030;115.880;2022-08-21T03:50:51;2.95;;;0.90;;
72369;SDS011;60343;-32.030;115.880;2022-08-21T03:53:19;3.63;;;1.00;;
72369;SDS011;60343;-32.030;115.880;2022-08-21T03:55:47;2.13;;;0.60;;
72369;SDS011;60343;-32.030;115.880;2022-08-21T03:58:17;3.08;;;0.80;;
72369;SDS011;60343;-32.030;115.880;2022-08-21T04:00:47;4.00;;;0.98;;
72369;SDS011;60343;-32.030;115.880;2022-08-21T04:03:22;2.88;;;0.75;;
72369;SDS011;60343;-32.030;115.880;2022-08-21T04:05:51;2.65;;;0.80;;
72369;SDS011;60343;-32.030;115.880;2022-08-21T04:08:19;1.90;;;0.68;;
72369;SDS011;60343;-32.030;115.880;2022-08-21T04:10:49;2.28;;;0.60;;
72369;SDS011;60343;-32.030;115.880;2022-08-21T04:13:18;2.00;;;0.70;;
72369;SDS011;60343;-32.030;115.880;2022-08-21T04:15:50;2.83;;;0.80;;
72369;SDS011;60343;-32.030;115.880;2022-08-21T04:18:26;1.42;;;0.70;;
72369;SDS011;60343;-32.030;115.880;2022-08-21T04:20:53;2.90;;;0.98;;
72369;SDS011;60343;-32.030;115.880;2022-08-21T04:23:24;2.70;;;0.77;;
72369;SDS011;60343;-32.030;115.880;2022-08-21T04:25:52;2.15;;;0.95;;
72369;SDS011;60343;-32.030;115.880;2022-08-21T04:28:21;2.83;;;0.80;;
72369;SDS011;60343;-32.030;115.880;2022-08-21T04:30:50;3.25;;;0.90;;
72369;SDS011;60343;-32.030;115.880;2022-08-21T04:33:33;3.15;;;0.90;;
72369;SDS011;60343;-32.030;115.880;2022-08-21T04:36:01;2.97;;;0.80;;
72369;SDS011;60343;-32.030;115.880;2022-08-21T04:38:38;2.35;;;0.70;;
72369;SDS011;60343;-32.030;115.880;2022-08-21T04:41:15;2.42;;;0.70;;
72369;SDS011;60343;-32.030;115.880;2022-08-21T04:43:43;2.30;;;0.70;;
72369;SDS011;60343;-32.030;115.880;2022-08-21T04:46:11;3.13;;;0.90;;
72369;SDS011;60343;-32.030;115.880;2022-08-21T04:48:44;2.88;;;0.80;;
72369;SDS011;60343;-32.030;115.880;2022-08-21T04:51:12;5.22;;;0.88;;
72369;SDS011;60343;-32.030;115.880;2022-08-21T04:53:43;4.35;;;0.90;;
72369;SDS011;60343;-32.030;115.880;2022-08-21T04:56:17;5.53;;;0.90;;
72369;SDS011;60343;-32.030;115.880;2022-08-21T04:58:49;1.17;;;0.57;;
72369;SDS011;60343;-32.030;115.880;2022-08-21T05:01:19;2.55;;;0.80;;
72369;SDS011;60343;-32.030;115.880;2022-08-21T05:03:56;4.78;;;0.80;;
72369;SDS011;60343;-32.030;115.880;2022-08-21T05:06:26;1.92;;;0.80;;
72369;SDS011;60343;-32.030;115.880;2022-08-21T05:08:56;4.57;;;0.90;;
72369;SDS011;60343;-32.030;115.880;2022-08-21T05:11:25;2.30;;;0.90;;
72369;SDS011;60343;-32.030;115.880;2022-08-21T05:13:53;2.67;;;0.93;;
72369;SDS011;60343;-32.030;115.880;2022-08-21T05:16:21;2.97;;;1.02;;
72369;SDS011;60343;-32.030;115.880;2022-08-21T05:18:49;1.10;;;0.60;;
72369;SDS011;60343;-32.030;115.880;2022-08-21T05:21:24;1.85;;;0.75;;
72369;SDS011;60343;-32.030;115.880;2022-08-21T05:23:53;1.70;;;0.60;;
72369;SDS011;60343;-32.030;115.880;2022-08-21T05:26:20;2.60;;;0.70;;
72369;SDS011;60343;-32.030;115.880;2022-08-21T05:28:48;2.13;;;0.60;;
72369;SDS011;60343;-32.030;115.880;2022-08-21T05:31:15;2.38;;;0.63;;
72369;SDS011;60343;-32.030;115.880;2022-08-21T05:33:43;2.10;;;0.70;;
72369;SDS011;60343;-32.030;115.880;2022-08-21T05:36:17;1.88;;;0.77;;
72369;SDS011;60343;-32.030;115.880;2022-08-21T05:38:45;2.20;;;0.60;;
72369;SDS011;60343;-32.030;115.880;2022-08-21T05:41:12;1.85;;;0.70;;
72369;SDS011;60343;-32.030;115.880;2022-08-21T05:43:40;1.73;;;0.70;;
72369;SDS011;60343;-32.030;115.880;2022-08-21T05:46:08;2.65;;;1.25;;
72369;SDS011;60343;-32.030;115.880;2022-08-21T05:48:36;2.92;;;0.65;;
72369;SDS011;60343;-32.030;115.880;2022-08-21T05:51:04;2.80;;;0.70;;
72369;SDS011;60343;-32.030;115.880;2022-08-21T05:53:39;2.75;;;0.90;;
72369;SDS011;60343;-32.030;115.880;2022-08-21T05:56:08;1.55;;;0.70;;
72369;SDS011;60343;-32.030;115.880;2022-08-21T05:58:36;4.65;;;0.80;;
72369;SDS011;60343;-32.030;115.880;2022-08-21T06:01:05;2.10;;;0.77;;
72369;SDS011;60343;-32.030;115.880;2022-08-21T06:03:34;2.63;;;0.80;;
72369;SDS011;60343;-32.030;115.880;2022-08-21T06:06:03;2.22;;;0.70;;
72369;SDS011;60343;-32.030;115.880;2022-08-21T06:08:31;2.45;;;0.90;;
72369;SDS011;60343;-32.030;115.880;2022-08-21T06:11:05;2.40;;;1.00;;
72369;SDS011;60343;-32.030;115.880;2022-08-21T06:13:33;2.80;;;0.85;;
72369;SDS011;60343;-32.030;115.880;2022-08-21T06:16:01;1.63;;;0.70;;
72369;SDS011;60343;-32.030;115.880;2022-08-21T06:18:30;3.45;;;1.20;;
72369;SDS011;60343;-32.030;115.880;2022-08-21T06:20:58;3.10;;;0.70;;
72369;SDS011;60343;-32.030;115.880;2022-08-21T06:23:26;2.72;;;0.80;;
72369;SDS011;60343;-32.030;115.880;2022-08-21T06:25:54;1.73;;;0.80;;
72369;SDS011;60343;-32.030;115.880;2022-08-21T06:28:27;2.65;;;0.77;;
72369;SDS011;60343;-32.030;115.880;2022-08-21T06:30:55;2.55;;;0.80;;
72369;SDS011;60343;-32.030;115.880;2022-08-21T06:33:23;2.28;;;0.70;;
72369;SDS011;60343;-32.030;115.880;2022-08-21T06:35:51;2.33;;;0.88;;
72369;SDS011;60343;-32.030;115.880;2022-08-21T06:38:18;1.73;;;0.60;;
72369;SDS011;60343;-32.030;115.880;2022-08-21T06:40:46;2.63;;;0.90;;
72369;SDS011;60343;-32.030;115.880;2022-08-21T06:43:14;1.48;;;0.60;;
72369;SDS011;60343;-32.030;115.880;2022-08-21T06:45:48;1.23;;;0.50;;
72369;SDS011;60343;-32.030;115.880;2022-08-21T06:48:16;2.75;;;0.68;;
72369;SDS011;60343;-32.030;115.880;2022-08-21T06:50:43;2.20;;;0.70;;
72369;SDS011;60343;-32.030;115.880;2022-08-21T06:53:12;2.75;;;0.80;;
72369;SDS011;60343;-32.030;115.880;2022-08-21T06:55:41;1.95;;;0.60;;
72369;SDS011;60343;-32.030;115.880;2022-08-21T06:58:09;1.60;;;0.60;;
72369;SDS011;60343;-32.030;115.880;2022-08-21T07:00:38;1.70;;;0.60;;
72369;SDS011;60343;-32.030;115.880;2022-08-21T07:03:15;2.85;;;0.70;;
72369;SDS011;60343;-32.030;115.880;2022-08-21T07:05:43;1.52;;;0.60;;
72369;SDS011;60343;-32.030;115.880;2022-08-21T07:08:11;1.77;;;0.60;;
72369;SDS011;60343;-32.030;115.880;2022-08-21T07:10:41;2.42;;;0.60;;
72369;SDS011;60343;-32.030;115.880;2022-08-21T07:13:09;1.42;;;0.50;;
72369;SDS011;60343;-32.030;115.880;2022-08-21T07:15:37;1.92;;;0.70;;
72369;SDS011;60343;-32.030;115.880;2022-08-21T07:18:13;1.85;;;0.63;;
72369;SDS011;60343;-32.030;115.880;2022-08-21T07:20:41;2.65;;;0.60;;
72369;SDS011;60343;-32.030;115.880;2022-08-21T07:23:10;1.80;;;0.63;;
72369;SDS011;60343;-32.030;115.880;2022-08-21T07:25:42;3.10;;;0.70;;
72369;SDS011;60343;-32.030;115.880;2022-08-21T07:28:10;2.88;;;0.70;;
72369;SDS011;60343;-32.030;115.880;2022-08-21T07:30:37;2.13;;;0.75;;
72369;SDS011;60343;-32.030;115.880;2022-08-21T07:33:05;2.28;;;0.60;;
72369;SDS011;60343;-32.030;115.880;2022-08-21T07:35:41;1.33;;;0.60;;
72369;SDS011;60343;-32.030;115.880;2022-08-21T07:38:08;2.75;;;0.63;;
72369;SDS011;60343;-32.030;115.880;2022-08-21T07:40:36;3.70;;;0.70;;
72369;SDS011;60343;-32.030;115.880;2022-08-21T07:43:04;1.52;;;0.57;;
72369;SDS011;60343;-32.030;115.880;2022-08-21T07:45:32;2.67;;;0.80;;
72369;SDS011;60343;-32.030;115.880;2022-08-21T07:47:59;4.05;;;0.80;;
72369;SDS011;60343;-32.030;115.880;2022-08-21T07:50:33;1.88;;;0.60;;
72369;SDS011;60343;-32.030;115.880;2022-08-21T07:53:00;1.48;;;0.60;;
72369;SDS011;60343;-32.030;115.880;2022-08-21T07:55:28;2.90;;;0.60;;
72369;SDS011;60343;-32.030;115.880;2022-08-21T07:57:56;3.17;;;0.73;;
72369;SDS011;60343;-32.030;115.880;2022-08-21T08:00:24;2.08;;;0.70;;
72369;SDS011;60343;-32.030;115.880;2022-08-21T08:02:53;1.85;;;0.63;;
72369;SDS011;60343;-32.030;115.880;2022-08-21T08:05:24;2.25;;;0.60;;
72369;SDS011;60343;-32.030;115.880;2022-08-21T08:07:59;2.45;;;0.90;;
72369;SDS011;60343;-32.030;115.880;2022-08-21T08:10:27;4.45;;;1.00;;
72369;SDS011;60343;-32.030;115.880;2022-08-21T08:12:54;2.92;;;1.10;;
72369;SDS011;60343;-32.030;115.880;2022-08-21T08:15:23;2.47;;;0.98;;
72369;SDS011;60343;-32.030;115.880;2022-08-21T08:17:52;1.70;;;0.60;;
72369;SDS011;60343;-32.030;115.880;2022-08-21T08:20:21;2.55;;;0.60;;
72369;SDS011;60343;-32.030;115.880;2022-08-21T08:22:49;2.78;;;0.60;;
72369;SDS011;60343;-32.030;115.880;2022-08-21T08:25:23;4.40;;;0.82;;
72369;SDS011;60343;-32.030;115.880;2022-08-21T08:27:53;1.50;;;0.55;;
72369;SDS011;60343;-32.030;115.880;2022-08-21T08:30:24;5.03;;;1.38;;
72369;SDS011;60343;-32.030;115.880;2022-08-21T08:32:51;1.75;;;0.60;;
72369;SDS011;60343;-32.030;115.880;2022-08-21T08:35:30;1.23;;;0.40;;
72369;SDS011;60343;-32.030;115.880;2022-08-21T08:38:03;2.63;;;0.50;;
72369;SDS011;60343;-32.030;115.880;2022-08-21T08:40:37;2.50;;;0.50;;
72369;SDS011;60343;-32.030;115.880;2022-08-21T08:43:10;1.25;;;0.43;;
72369;SDS011;60343;-32.030;115.880;2022-08-21T08:45:38;3.20;;;0.88;;
72369;SDS011;60343;-32.030;115.880;2022-08-21T08:48:10;2.28;;;0.60;;
72369;SDS011;60343;-32.030;115.880;2022-08-21T08:50:45;2.50;;;0.60;;
72369;SDS011;60343;-32.030;115.880;2022-08-21T08:53:15;2.08;;;0.40;;
72369;SDS011;60343;-32.030;115.880;2022-08-21T08:58:37;1.73;;;0.40;;
72369;SDS011;60343;-32.030;115.880;2022-08-21T09:01:10;3.08;;;0.70;;
72369;SDS011;60343;-32.030;115.880;2022-08-21T09:03:42;8.55;;;1.20;;
72369;SDS011;60343;-32.030;115.880;2022-08-21T09:06:12;6.65;;;0.75;;
72369;SDS011;60343;-32.030;115.880;2022-08-21T09:08:54;1.65;;;0.50;;
72369;SDS011;60343;-32.030;115.880;2022-08-21T09:11:37;3.00;;;0.70;;
72369;SDS011;60343;-32.030;115.880;2022-08-21T09:14:16;0.90;;;0.40;;
72369;SDS011;60343;-32.030;115.880;2022-08-21T09:16:58;1.17;;;0.35;;
72369;SDS011;60343;-32.030;115.880;2022-08-21T09:19:42;2.17;;;0.50;;
72369;SDS011;60343;-32.030;115.880;2022-08-21T09:22:19;2.72;;;0.50;;
72369;SDS011;60343;-32.030;115.880;2022-08-21T09:24:58;2.58;;;0.40;;
72369;SDS011;60343;-32.030;115.880;2022-08-21T09:27:40;1.27;;;0.30;;
72369;SDS011;60343;-32.030;115.880;2022-08-21T09:30:08;2.83;;;0.43;;
72369;SDS011;60343;-32.030;115.880;2022-08-21T09:32:36;1.60;;;0.30;;
72369;SDS011;60343;-32.030;115.880;2022-08-21T09:35:10;1.60;;;0.40;;
72369;SDS011;60343;-32.030;115.880;2022-08-21T09:37:46;1.10;;;0.45;;
72369;SDS011;60343;-32.030;115.880;2022-08-21T09:40:20;0.82;;;0.30;;
72369;SDS011;60343;-32.030;115.880;2022-08-21T09:43:16;1.13;;;0.40;;
72369;SDS011;60343;-32.030;115.880;2022-08-21T09:45:45;1.67;;;0.50;;
72369;SDS011;60343;-32.030;115.880;2022-08-21T09:48:17;0.93;;;0.30;;
72369;SDS011;60343;-32.030;115.880;2022-08-21T09:50:46;1.10;;;0.20;;
72369;SDS011;60343;-32.030;115.880;2022-08-21T09:53:18;2.33;;;0.50;;
72369;SDS011;60343;-32.030;115.880;2022-08-21T09:55:48;1.50;;;0.43;;
72369;SDS011;60343;-32.030;115.880;2022-08-21T09:58:32;1.98;;;0.60;;
72369;SDS011;60343;-32.030;115.880;2022-08-21T10:01:02;1.80;;;0.57;;
72369;SDS011;60343;-32.030;115.880;2022-08-21T10:03:32;1.02;;;0.40;;
72369;SDS011;60343;-32.030;115.880;2022-08-21T10:06:00;1.70;;;0.50;;
72369;SDS011;60343;-32.030;115.880;2022-08-21T10:08:31;2.90;;;0.50;;
72369;SDS011;60343;-32.030;115.880;2022-08-21T10:11:02;1.83;;;0.60;;
72369;SDS011;60343;-32.030;115.880;2022-08-21T10:13:44;1.88;;;0.60;;
72369;SDS011;60343;-32.030;115.880;2022-08-21T10:16:22;3.00;;;0.70;;
72369;SDS011;60343;-32.030;115.880;2022-08-21T10:19:02;4.18;;;0.95;;
72369;SDS011;60343;-32.030;115.880;2022-08-21T10:21:40;5.20;;;1.17;;
72369;SDS011;60343;-32.030;115.880;2022-08-21T10:24:26;5.25;;;0.60;;
72369;SDS011;60343;-32.030;115.880;2022-08-21T10:27:02;3.47;;;0.70;;
72369;SDS011;60343;-32.030;115.880;2022-08-21T10:32:20;2.83;;;0.55;;
72369;SDS011;60343;-32.030;115.880;2022-08-21T10:34:58;3.55;;;0.73;;
72369;SDS011;60343;-32.030;115.880;2022-08-21T10:37:34;2.47;;;0.80;;
72369;SDS011;60343;-32.030;115.880;2022-08-21T10:40:13;3.90;;;0.85;;
72369;SDS011;60343;-32.030;115.880;2022-08-21T10:42:49;4.68;;;0.80;;
72369;SDS011;60343;-32.030;115.880;2022-08-21T10:45:36;3.72;;;0.70;;
72369;SDS011;60343;-32.030;115.880;2022-08-21T10:48:16;6.72;;;0.70;;
72369;SDS011;60343;-32.030;115.880;2022-08-21T10:50:51;4.80;;;0.98;;
72369;SDS011;60343;-32.030;115.880;2022-08-21T10:56:17;4.25;;;0.70;;
72369;SDS011;60343;-32.030;115.880;2022-08-21T10:58:51;6.82;;;0.90;;
72369;SDS011;60343;-32.030;115.880;2022-08-21T11:01:38;5.85;;;1.05;;
72369;SDS011;60343;-32.030;115.880;2022-08-21T11:04:13;3.70;;;0.73;;
72369;SDS011;60343;-32.030;115.880;2022-08-21T11:06:46;2.35;;;0.70;;
72369;SDS011;60343;-32.030;115.880;2022-08-21T11:09:19;4.32;;;0.77;;
72369;SDS011;60343;-32.030;115.880;2022-08-21T11:11:52;3.42;;;0.50;;
72369;SDS011;60343;-32.030;115.880;2022-08-21T11:14:26;2.50;;;0.70;;
72369;SDS011;60343;-32.030;115.880;2022-08-21T11:17:08;5.75;;;0.80;;
72369;SDS011;60343;-32.030;115.880;2022-08-21T11:19:40;3.53;;;0.80;;
72369;SDS011;60343;-32.030;115.880;2022-08-21T11:22:14;3.45;;;0.70;;
72369;SDS011;60343;-32.030;115.880;2022-08-21T11:24:46;3.65;;;0.80;;
72369;SDS011;60343;-32.030;115.880;2022-08-21T11:27:21;2.33;;;0.70;;
72369;SDS011;60343;-32.030;115.880;2022-08-21T11:29:54;5.28;;;0.90;;
72369;SDS011;60343;-32.030;115.880;2022-08-21T11:35:31;5.20;;;0.85;;
72369;SDS011;60343;-32.030;115.880;2022-08-21T11:41:02;3.13;;;0.73;;
72369;SDS011;60343;-32.030;115.880;2022-08-21T11:43:40;3.55;;;0.80;;
72369;SDS011;60343;-32.030;115.880;2022-08-21T11:46:16;2.53;;;0.50;;
72369;SDS011;60343;-32.030;115.880;2022-08-21T11:48:55;5.32;;;0.80;;
72369;SDS011;60343;-32.030;115.880;2022-08-21T11:51:38;3.83;;;0.70;;
72369;SDS011;60343;-32.030;115.880;2022-08-21T11:54:24;4.38;;;0.82;;
72369;SDS011;60343;-32.030;115.880;2022-08-21T11:56:58;2.67;;;0.60;;
72369;SDS011;60343;-32.030;115.880;2022-08-21T11:59:32;5.22;;;0.93;;
72369;SDS011;60343;-32.030;115.880;2022-08-21T12:02:06;4.55;;;1.05;;
72369;SDS011;60343;-32.030;115.880;2022-08-21T12:04:42;4.03;;;0.93;;
72369;SDS011;60343;-32.030;115.880;2022-08-21T12:07:29;2.70;;;0.63;;
72369;SDS011;60343;-32.030;115.880;2022-08-21T12:10:00;5.13;;;0.80;;
72369;SDS011;60343;-32.030;115.880;2022-08-21T12:12:30;2.40;;;0.63;;
72369;SDS011;60343;-32.030;115.880;2022-08-21T12:17:53;1.75;;;0.52;;
72369;SDS011;60343;-32.030;115.880;2022-08-21T12:20:25;2.53;;;0.68;;
72369;SDS011;60343;-32.030;115.880;2022-08-21T12:23:15;2.00;;;0.70;;
72369;SDS011;60343;-32.030;115.880;2022-08-21T12:25:59;3.33;;;0.80;;
72369;SDS011;60343;-32.030;115.880;2022-08-21T12:28:29;3.13;;;0.90;;
72369;SDS011;60343;-32.030;115.880;2022-08-21T12:30:58;3.65;;;0.90;;
72369;SDS011;60343;-32.030;115.880;2022-08-21T12:33:27;1.92;;;0.75;;
72369;SDS011;60343;-32.030;115.880;2022-08-21T12:36:02;2.72;;;0.70;;
72369;SDS011;60343;-32.030;115.880;2022-08-21T12:38:39;4.10;;;0.80;;
72369;SDS011;60343;-32.030;115.880;2022-08-21T12:41:17;2.33;;;0.60;;
72369;SDS011;60343;-32.030;115.880;2022-08-21T12:43:51;3.35;;;0.95;;
72369;SDS011;60343;-32.030;115.880;2022-08-21T12:46:24;4.43;;;0.57;;
72369;SDS011;60343;-32.030;115.880;2022-08-21T12:48:58;1.30;;;0.50;;
72369;SDS011;60343;-32.030;115.880;2022-08-21T12:51:31;1.77;;;0.68;;
72369;SDS011;60343;-32.030;115.880;2022-08-21T12:54:21;3.33;;;0.70;;
72369;SDS011;60343;-32.030;115.880;2022-08-21T12:56:56;3.53;;;0.60;;
72369;SDS011;60343;-32.030;115.880;2022-08-21T12:59:24;3.90;;;0.80;;
72369;SDS011;60343;-32.030;115.880;2022-08-21T13:01:52;2.08;;;0.60;;
72369;SDS011;60343;-32.030;115.880;2022-08-21T13:04:22;3.30;;;0.60;;
72369;SDS011;60343;-32.030;115.880;2022-08-21T13:06:58;1.83;;;0.55;;
72369;SDS011;60343;-32.030;115.880;2022-08-21T13:09:31;2.78;;;0.65;;
72369;SDS011;60343;-32.030;115.880;2022-08-21T13:11:59;2.00;;;0.55;;
72369;SDS011;60343;-32.030;115.880;2022-08-21T13:14:28;4.82;;;0.65;;
72369;SDS011;60343;-32.030;115.880;2022-08-21T13:16:59;2.25;;;0.65;;
72369;SDS011;60343;-32.030;115.880;2022-08-21T13:19:31;4.03;;;0.50;;
72369;SDS011;60343;-32.030;115.880;2022-08-21T13:21:59;1.80;;;0.73;;
72369;SDS011;60343;-32.030;115.880;2022-08-21T13:24:33;4.03;;;0.70;;
72369;SDS011;60343;-32.030;115.880;2022-08-21T13:27:03;2.15;;;0.55;;
72369;SDS011;60343;-32.030;115.880;2022-08-21T13:29:41;3.47;;;0.60;;
72369;SDS011;60343;-32.030;115.880;2022-08-21T13:32:13;2.90;;;0.50;;
72369;SDS011;60343;-32.030;115.880;2022-08-21T13:34:51;3.85;;;0.80;;
72369;SDS011;60343;-32.030;115.880;2022-08-21T13:37:19;3.83;;;0.65;;
72369;SDS011;60343;-32.030;115.880;2022-08-21T13:39:56;3.65;;;0.70;;
72369;SDS011;60343;-32.030;115.880;2022-08-21T13:42:23;2.80;;;0.50;;
72369;SDS011;60343;-32.030;115.880;2022-08-21T13:44:52;3.25;;;0.60;;
72369;SDS011;60343;-32.030;115.880;2022-08-21T13:47:20;4.18;;;0.70;;
72369;SDS011;60343;-32.030;115.880;2022-08-21T13:49:49;4.85;;;0.68;;
72369;SDS011;60343;-32.030;115.880;2022-08-21T13:52:20;3.10;;;0.63;;
72369;SDS011;60343;-32.030;115.880;2022-08-21T13:54:59;5.22;;;0.70;;
72369;SDS011;60343;-32.030;115.880;2022-08-21T13:57:35;4.35;;;0.70;;
72369;SDS011;60343;-32.030;115.880;2022-08-21T14:00:14;4.05;;;0.80;;
72369;SDS011;60343;-32.030;115.880;2022-08-21T14:02:44;5.28;;;0.80;;
72369;SDS011;60343;-32.030;115.880;2022-08-21T14:05:15;2.03;;;0.60;;
72369;SDS011;60343;-32.030;115.880;2022-08-21T14:07:47;4.15;;;0.80;;
72369;SDS011;60343;-32.030;115.880;2022-08-21T14:10:22;2.58;;;0.75;;
72369;SDS011;60343;-32.030;115.880;2022-08-21T14:12:50;2.65;;;0.60;;
72369;SDS011;60343;-32.030;115.880;2022-08-21T14:15:22;1.85;;;0.43;;
72369;SDS011;60343;-32.030;115.880;2022-08-21T14:17:51;3.13;;;0.50;;
72369;SDS011;60343;-32.030;115.880;2022-08-21T14:20:26;2.83;;;0.43;;
72369;SDS011;60343;-32.030;115.880;2022-08-21T14:22:56;1.75;;;0.43;;
72369;SDS011;60343;-32.030;115.880;2022-08-21T14:25:37;3.95;;;0.50;;
72369;SDS011;60343;-32.030;115.880;2022-08-21T14:28:11;1.85;;;0.40;;
72369;SDS011;60343;-32.030;115.880;2022-08-21T14:30:49;1.20;;;0.40;;
72369;SDS011;60343;-32.030;115.880;2022-08-21T14:33:20;1.10;;;0.40;;
72369;SDS011;60343;-32.030;115.880;2022-08-21T14:35:52;1.23;;;0.30;;
72369;SDS011;60343;-32.030;115.880;2022-08-21T14:38:21;0.82;;;0.30;;
72369;SDS011;60343;-32.030;115.880;2022-08-21T14:41:00;1.63;;;0.30;;
72369;SDS011;60343;-32.030;115.880;2022-08-21T14:43:34;1.38;;;0.40;;
72369;SDS011;60343;-32.030;115.880;2022-08-21T14:46:02;1.65;;;0.40;;
72369;SDS011;60343;-32.030;115.880;2022-08-21T14:48:30;1.67;;;0.47;;
72369;SDS011;60343;-32.030;115.880;2022-08-21T14:50:58;2.10;;;0.47;;